Aeroporto :
LOGIN :

Iscrizione | Disclaimer

   EN    FR    IT 

 










Sommario :    VFR   VFR Marginale   IFR   IFR Intensivo   IFR Molto Intensivo
Visibilità : 
Base nubi : 
>= 8 km
>= 3000ft
5 / 8 km
1000 / 3000 ft
1500m / 5 km
500 / 1000 ft
800 / 1500m
200 / 500 ft
< 800m
< 200 ft
Simboli :   Temporali  Nebbia  Neve Forte  Precipitazioni Forti  Vento > 20 kt
SIGMETs :   Varie  Temporali  Ghiacco  Turbolenza  Onda orograficha  Ceneri Vulcaniche






- Altitudine del aeroporto : 33 ft
- Codice IATA : MHZ


EGUN - RAF Mildenhall

ULTIMO METAR :
  • 281655Z 03016G31KT 9999 FEW031 BKN043 07/02 A3047 RMK AO2A SLP317 WND DATA ESTMD ALSTG/SLP ESTMD RVRNO

METARs OBSOLETI :
  • 281555Z 03016G25KT 9999 SCT040 BKN050 09/02 A3046 RMK AO2A SLP311 WND DATA ESTMD ALSTG/SLP ESTMD RVRNO
  • 281455Z 04017G25KT 9999 BKN050 09/M02 A3044 RMK AO2A SLP309 WND DATA ESTMD ALSTG/SLP ESTMD RVRNO

TAF TAF EGUN
Valido dal 28 a 12 ore il 29 a 18 ore UTC


281200Z 2812/2918 03015G25KT 9999 SCT030 QNH3043INS
TEMPO 2906/2911 03025G35KT 510003 TX12/2812Z TN03/2906Z



MetMap, La meteo Aeronautica in un colpo d'occhio ! - Copyright ORBIFLY Dicembre 2007 - Disclaimer

ORBIFLY MET'MAP TEAM :

Programmazione e sviluppo : Alexandra Zaïnal
Concezione : Baudouin d'Aumeries
Aiuto per la programmazione : Marc-Olivier Méhu
Supporto tecnico e logistico : Manuel Goepfert
Aiuto per la traduzione : Arnaldo La Scala

Contatto : metmap@orbifly.com




FONTI E CREDITI :

   NOAA